Aviation Digital Data Service (ADDS)

Output produced by TAFs form (1626 UTC 23 May 2015)
found at http://www.aviationweather.gov/adds/tafs/
 
KSBY 231120Z 2312/2412 VRB06KT P6SM SCT200